METAR Data
IDs: Format: Raw Decoded Include TAF

Data at: 0914 UTC 18 Jan 2019

PAWI 180853Z AUTO 09012KT 10SM CLR M24/M28 A2979 RMK AO2 SLP089 T12441278 411781250 56003 TSNO
PAWI 180753Z AUTO 09010KT 10SM CLR M24/M27 A2980 RMK AO2 SLP092 T12441272 TSNO
PAWI 180653Z AUTO 08016KT 10SM CLR M23/M26 A2979 RMK AO2 SLP090 T12331261 TSNO
PAWI 180553Z AUTO 07011KT 10SM CLR M23/M26 A2980 RMK AO2 SLP092 T12331261 11194 21233 50000 TSNO
PAWI 180453Z AUTO 08011KT 10SM CLR M23/M26 A2981 RMK AO2 SLP097 T12281256 TSNO
PAWI 180353Z AUTO 08011KT 10SM CLR M22/M25 A2981 RMK AO2 WSHFT 0243 SLP095 T12221250 TSNO
PAWI 180303Z AUTO 09016KT 10SM CLR M22/M24 A2980 RMK AO2 WSHFT 0243 T12171244 TSNO
PAWI 180253Z AUTO 09017KT 10SM CLR M21/M24 A2980 RMK AO2 SLP092 T12111244 56003 TSNO
PAWI 180153Z AUTO 06016KT 6SM HZ CLR M21/M24 A2980 RMK AO2 SLP093 T12111239 TSNO
PAWI 180053Z AUTO 08016KT 5SM HZ CLR M20/M23 A2980 RMK AO2 SLP093 T12001228 TSNO
PAWI 180032Z AUTO 09017KT 4SM HZ CLR M19/M22 A2980 RMK AO2 T11941222 TSNO
PAWI 180004Z AUTO 08020KT 2SM HZ CLR M19/M23 A2980 RMK AO2 T11941228 TSNO
PAWI 172353Z AUTO 08019KT 1 1/2SM HZ CLR M20/M23 A2981 RMK AO2 SLP095 T12001228 11178 21206 58007 TSNO
PAWI 172342Z AUTO 08020KT 1 1/2SM HZ CLR M19/M23 A2981 RMK AO2 T11941228 TSNO
PAWI 172335Z AUTO 07019KT 2SM HZ CLR M20/M23 A2981 RMK AO2 T12001228 TSNO
PAWI 172253Z AUTO 07017KT 5SM HZ CLR M19/M22 A2982 RMK AO2 SLP098 T11941222 TSNO
PAWI 172153Z AUTO 07016KT 10SM CLR M19/M23 A2982 RMK AO2 SLP100 T11941228 TSNO
PAWI 172053Z AUTO 07014KT 10SM CLR M21/M23 A2983 RMK AO2 SLP102 T12061233 52002 TSNO
PAWI 171953Z AUTO 08010KT 10SM CLR M19/M22 A2983 RMK AO2 SLP103 T11941222 TSNO
PAWI 171853Z AUTO 08014KT 10SM CLR M18/M22 A2982 RMK AO2 SLP099 T11831217 TSNO
PAWI 171753Z AUTO 07015KT 10SM CLR M19/M23 A2982 RMK AO2 SLP100 I6000 T11941228 11178 21228 56009 TSNO
PAWI 171653Z AUTO 08015KT 10SM CLR M19/M22 A2982 RMK AO2 SLP101 T11941222 TSNO $
PAWI 171553Z AUTO 07014KT 10SM CLR M20/M22 A2984 RMK AO2 SLP105 T12001222 TSNO $
PAWI 171453Z AUTO 09011KT 10SM CLR M21/M24 A2985 RMK AO2 SLP109 I3000 T12111239 56008 TSNO $
PAWI 171353Z AUTO 09009KT 10SM CLR M22/M24 A2986 RMK AO2 SLP111 I1000 T12171239 TSNO $
PAWI 171253Z AUTO 08007KT 10SM CLR M22/M24 A2987 RMK AO2 SLP115 T12221244 TSNO $
PAWI 171153Z AUTO 10004KT 10SM CLR M23/M26 A2988 RMK AO2 SLP118 T12281256 11217 21239 57003 TSNO $
PAWI 171100Z AUTO 07009KT 10SM FEW001 M24/M27 A2987 RMK AO2 T12391272 TSNO $
PAWI 171053Z AUTO 07008KT 10SM CLR M23/M27 A2988 RMK AO2 SLP119 T12331267 TSNO $
PAWI 171033Z AUTO 06010KT 10SM FEW002 M23/M27 A2988 RMK AO2 T12331272 TSNO $
PAWI 170953Z AUTO 06008KT 10SM BKN002 M23/M27 A2988 RMK AO2 SLP120 T12331267 TSNO $
PAWI 170934Z AUTO 05007KT 10SM FEW002 M23/M27 A2988 RMK AO2 T12331272 TSNO $
PAWI 170853Z AUTO 08007KT 10SM CLR M23/M27 A2988 RMK AO2 SLP121 T12331267 412061239 55004 TSNO $
PAWI 170753Z AUTO 05009KT 10SM CLR M22/M26 A2988 RMK AO2 SLP120 T12221261 TSNO $
PAWI 170653Z AUTO 07006KT 10SM CLR M23/M27 A2989 RMK AO2 SLP123 T12331267 TSNO $
PAWI 170553Z AUTO 09005KT 10SM CLR M23/M26 A2989 RMK AO2 SLP125 T12281261 11222 21239 56003 TSNO $
PAWI 170453Z AUTO 14004KT 10SM CLR M23/M27 A2990 RMK AO2 SLP125 T12281267 TSNO $
PAWI 170353Z AUTO 06006KT 10SM CLR M23/M27 A2989 RMK AO2 SLP123 T12331267 TSNO $
PAWI 170253Z AUTO 09004KT 10SM CLR M23/M27 A2990 RMK AO2 SLP128 T12331267 TSNO $
PAWI 170153Z AUTO 05004KT 10SM CLR M23/M27 A2991 RMK AO2 SLP128 T12281267 TSNO
PAWI 170053Z AUTO 06005KT 10SM CLR M23/M27 A2991 RMK AO2 SLP129 T12331267 TSNO
PAWI 162353Z AUTO 00000KT 10SM CLR M23/M26 A2991 RMK AO2 SLP130 T12281256 11222 21233 51000 TSNO
PAWI 162253Z AUTO 07006KT 10SM CLR M23/M27 A2991 RMK AO2 SLP129 T12331267 TSNO
PAWI 162153Z AUTO 08003KT 10SM CLR M23/M26 A2992 RMK AO2 SLP132 T12281261 TSNO